sensor_id;sensor_type;location;lat;lon;timestamp;temperature;humidity
75821;DHT22;64454;51.984;9.838;2023-08-21T00:01:45;24.20;1.00
75821;DHT22;64454;51.984;9.838;2023-08-21T00:04:13;24.20;1.00
75821;DHT22;64454;51.984;9.838;2023-08-21T00:06:41;24.20;1.00
75821;DHT22;64454;51.984;9.838;2023-08-21T00:09:10;24.20;1.00
75821;DHT22;64454;51.984;9.838;2023-08-21T00:11:37;24.20;1.00
75821;DHT22;64454;51.984;9.838;2023-08-21T00:14:04;24.00;1.00
75821;DHT22;64454;51.984;9.838;2023-08-21T00:16:32;23.80;1.00
75821;DHT22;64454;51.984;9.838;2023-08-21T00:19:00;23.70;1.00
75821;DHT22;64454;51.984;9.838;2023-08-21T00:21:27;23.60;1.00
75821;DHT22;64454;51.984;9.838;2023-08-21T00:23:54;23.50;1.00
75821;DHT22;64454;51.984;9.838;2023-08-21T00:26:23;23.40;1.00
75821;DHT22;64454;51.984;9.838;2023-08-21T00:28:49;23.40;1.00
75821;DHT22;64454;51.984;9.838;2023-08-21T00:31:16;23.40;1.00
75821;DHT22;64454;51.984;9.838;2023-08-21T00:33:43;23.40;1.00
75821;DHT22;64454;51.984;9.838;2023-08-21T00:36:10;23.40;1.00
75821;DHT22;64454;51.984;9.838;2023-08-21T00:38:37;23.40;1.00
75821;DHT22;64454;51.984;9.838;2023-08-21T00:41:04;23.40;1.00
75821;DHT22;64454;51.984;9.838;2023-08-21T00:43:32;23.30;1.00
75821;DHT22;64454;51.984;9.838;2023-08-21T00:45:59;23.30;1.00
75821;DHT22;64454;51.984;9.838;2023-08-21T00:48:26;23.30;1.00
75821;DHT22;64454;51.984;9.838;2023-08-21T00:50:53;23.30;1.00
75821;DHT22;64454;51.984;9.838;2023-08-21T00:53:21;23.30;1.00
75821;DHT22;64454;51.984;9.838;2023-08-21T00:55:48;23.20;1.00
75821;DHT22;64454;51.984;9.838;2023-08-21T00:58:15;23.20;1.00
75821;DHT22;64454;51.984;9.838;2023-08-21T01:00:45;23.10;1.00
75821;DHT22;64454;51.984;9.838;2023-08-21T01:03:14;23.10;1.00
75821;DHT22;64454;51.984;9.838;2023-08-21T01:05:41;23.10;1.00
75821;DHT22;64454;51.984;9.838;2023-08-21T01:08:13;23.10;1.00
75821;DHT22;64454;51.984;9.838;2023-08-21T01:10:50;23.00;1.00
75821;DHT22;64454;51.984;9.838;2023-08-21T01:13:28;23.10;1.00
75821;DHT22;64454;51.984;9.838;2023-08-21T01:16:08;23.00;1.00
75821;DHT22;64454;51.984;9.838;2023-08-21T01:18:37;23.10;1.00
75821;DHT22;64454;51.984;9.838;2023-08-21T01:21:05;23.10;1.00
75821;DHT22;64454;51.984;9.838;2023-08-21T01:23:34;23.10;1.00
75821;DHT22;64454;51.984;9.838;2023-08-21T01:26:01;23.10;1.00
75821;DHT22;64454;51.984;9.838;2023-08-21T01:28:29;23.10;1.00
75821;DHT22;64454;51.984;9.838;2023-08-21T01:31:02;23.00;1.00
75821;DHT22;64454;51.984;9.838;2023-08-21T01:33:37;23.00;1.00
75821;DHT22;64454;51.984;9.838;2023-08-21T01:36:09;22.80;1.00
75821;DHT22;64454;51.984;9.838;2023-08-21T01:38:38;22.80;1.00
75821;DHT22;64454;51.984;9.838;2023-08-21T01:41:05;22.80;1.00
75821;DHT22;64454;51.984;9.838;2023-08-21T01:43:31;22.80;1.00
75821;DHT22;64454;51.984;9.838;2023-08-21T01:45:59;22.80;1.00
75821;DHT22;64454;51.984;9.838;2023-08-21T01:48:27;22.80;1.00
75821;DHT22;64454;51.984;9.838;2023-08-21T01:50:54;22.70;1.00
75821;DHT22;64454;51.984;9.838;2023-08-21T01:53:21;22.60;1.00
75821;DHT22;64454;51.984;9.838;2023-08-21T01:55:49;22.60;1.00
75821;DHT22;64454;51.984;9.838;2023-08-21T01:58:16;22.60;1.00
75821;DHT22;64454;51.984;9.838;2023-08-21T02:00:45;22.60;1.00
75821;DHT22;64454;51.984;9.838;2023-08-21T02:03:13;22.60;1.00
75821;DHT22;64454;51.984;9.838;2023-08-21T02:05:40;22.50;1.00
75821;DHT22;64454;51.984;9.838;2023-08-21T02:08:14;22.40;1.00
75821;DHT22;64454;51.984;9.838;2023-08-21T02:10:50;22.30;1.00
75821;DHT22;64454;51.984;9.838;2023-08-21T02:13:18;22.20;1.00
75821;DHT22;64454;51.984;9.838;2023-08-21T02:15:45;22.20;1.00
75821;DHT22;64454;51.984;9.838;2023-08-21T02:18:12;22.10;1.00
75821;DHT22;64454;51.984;9.838;2023-08-21T02:20:39;21.90;1.00
75821;DHT22;64454;51.984;9.838;2023-08-21T02:23:06;21.90;1.00
75821;DHT22;64454;51.984;9.838;2023-08-21T02:25:33;21.90;1.00
75821;DHT22;64454;51.984;9.838;2023-08-21T02:28:01;21.70;1.00
75821;DHT22;64454;51.984;9.838;2023-08-21T02:30:29;21.70;1.00
75821;DHT22;64454;51.984;9.838;2023-08-21T02:32:56;21.70;1.00
75821;DHT22;64454;51.984;9.838;2023-08-21T02:35:23;21.70;1.00
75821;DHT22;64454;51.984;9.838;2023-08-21T02:37:50;21.60;1.00
75821;DHT22;64454;51.984;9.838;2023-08-21T02:40:17;21.60;1.00
75821;DHT22;64454;51.984;9.838;2023-08-21T02:42:44;21.60;1.00
75821;DHT22;64454;51.984;9.838;2023-08-21T02:45:12;21.60;1.00
75821;DHT22;64454;51.984;9.838;2023-08-21T02:47:40;21.60;1.00
75821;DHT22;64454;51.984;9.838;2023-08-21T02:50:09;21.60;1.00
75821;DHT22;64454;51.984;9.838;2023-08-21T02:52:37;21.60;1.00
75821;DHT22;64454;51.984;9.838;2023-08-21T02:55:05;21.60;1.00
75821;DHT22;64454;51.984;9.838;2023-08-21T02:57:32;21.60;1.00
75821;DHT22;64454;51.984;9.838;2023-08-21T02:59:59;21.70;1.00
75821;DHT22;64454;51.984;9.838;2023-08-21T03:02:28;21.70;1.00
75821;DHT22;64454;51.984;9.838;2023-08-21T03:04:55;21.70;1.00
75821;DHT22;64454;51.984;9.838;2023-08-21T03:07:22;21.70;1.00
75821;DHT22;64454;51.984;9.838;2023-08-21T03:09:49;21.60;1.00
75821;DHT22;64454;51.984;9.838;2023-08-21T03:12:16;21.60;1.00
75821;DHT22;64454;51.984;9.838;2023-08-21T03:14:43;21.50;1.00
75821;DHT22;64454;51.984;9.838;2023-08-21T03:17:12;21.40;1.00
75821;DHT22;64454;51.984;9.838;2023-08-21T03:19:40;21.20;1.00
75821;DHT22;64454;51.984;9.838;2023-08-21T03:22:07;21.10;1.00
75821;DHT22;64454;51.984;9.838;2023-08-21T03:24:34;21.10;1.00
75821;DHT22;64454;51.984;9.838;2023-08-21T03:27:01;21.00;1.00
75821;DHT22;64454;51.984;9.838;2023-08-21T03:29:28;21.10;1.00
75821;DHT22;64454;51.984;9.838;2023-08-21T03:31:55;21.00;1.00
75821;DHT22;64454;51.984;9.838;2023-08-21T03:34:22;21.10;1.00
75821;DHT22;64454;51.984;9.838;2023-08-21T03:36:51;21.10;1.00
75821;DHT22;64454;51.984;9.838;2023-08-21T03:39:19;21.20;1.00
75821;DHT22;64454;51.984;9.838;2023-08-21T03:41:46;21.20;1.00
75821;DHT22;64454;51.984;9.838;2023-08-21T03:44:14;21.20;1.00
75821;DHT22;64454;51.984;9.838;2023-08-21T03:46:43;21.20;1.00
75821;DHT22;64454;51.984;9.838;2023-08-21T03:49:10;21.20;1.00
75821;DHT22;64454;51.984;9.838;2023-08-21T03:51:37;21.20;1.00
75821;DHT22;64454;51.984;9.838;2023-08-21T03:54:05;21.20;1.00
75821;DHT22;64454;51.984;9.838;2023-08-21T03:56:33;21.20;1.00
75821;DHT22;64454;51.984;9.838;2023-08-21T03:58:59;21.10;1.00
75821;DHT22;64454;51.984;9.838;2023-08-21T04:01:26;21.10;1.00
75821;DHT22;64454;51.984;9.838;2023-08-21T04:03:53;21.10;1.00
75821;DHT22;64454;51.984;9.838;2023-08-21T04:06:20;21.10;1.00
75821;DHT22;64454;51.984;9.838;2023-08-21T04:08:47;21.00;1.00
75821;DHT22;64454;51.984;9.838;2023-08-21T04:11:15;20.90;1.00
75821;DHT22;64454;51.984;9.838;2023-08-21T04:13:42;20.80;1.00
75821;DHT22;64454;51.984;9.838;2023-08-21T04:16:09;20.80;1.00
75821;DHT22;64454;51.984;9.838;2023-08-21T04:18:37;20.80;1.00
75821;DHT22;64454;51.984;9.838;2023-08-21T04:21:04;20.80;1.00
75821;DHT22;64454;51.984;9.838;2023-08-21T04:23:31;20.80;1.00
75821;DHT22;64454;51.984;9.838;2023-08-21T04:26:00;20.80;1.00
75821;DHT22;64454;51.984;9.838;2023-08-21T04:28:29;20.70;1.00
75821;DHT22;64454;51.984;9.838;2023-08-21T04:30:56;20.70;1.00
75821;DHT22;64454;51.984;9.838;2023-08-21T04:33:24;20.60;1.00
75821;DHT22;64454;51.984;9.838;2023-08-21T04:35:51;20.70;1.00
75821;DHT22;64454;51.984;9.838;2023-08-21T04:38:18;20.70;1.00
75821;DHT22;64454;51.984;9.838;2023-08-21T04:40:45;20.70;1.00
75821;DHT22;64454;51.984;9.838;2023-08-21T04:43:12;20.60;1.00
75821;DHT22;64454;51.984;9.838;2023-08-21T04:45:46;20.60;1.00
75821;DHT22;64454;51.984;9.838;2023-08-21T04:48:14;20.60;1.00
75821;DHT22;64454;51.984;9.838;2023-08-21T04:50:41;20.60;1.00
75821;DHT22;64454;51.984;9.838;2023-08-21T04:53:08;20.70;1.00
75821;DHT22;64454;51.984;9.838;2023-08-21T04:55:35;20.60;1.00
75821;DHT22;64454;51.984;9.838;2023-08-21T04:58:02;20.40;1.00
75821;DHT22;64454;51.984;9.838;2023-08-21T05:00:29;20.50;1.00
75821;DHT22;64454;51.984;9.838;2023-08-21T05:02:58;20.40;1.00
75821;DHT22;64454;51.984;9.838;2023-08-21T05:05:25;20.40;1.00
75821;DHT22;64454;51.984;9.838;2023-08-21T05:07:52;20.40;1.00
75821;DHT22;64454;51.984;9.838;2023-08-21T05:10:19;20.50;1.00
75821;DHT22;64454;51.984;9.838;2023-08-21T05:12:47;20.50;1.00
75821;DHT22;64454;51.984;9.838;2023-08-21T05:15:14;20.60;1.00
75821;DHT22;64454;51.984;9.838;2023-08-21T05:17:41;20.70;1.00
75821;DHT22;64454;51.984;9.838;2023-08-21T05:20:10;20.80;1.00
75821;DHT22;64454;51.984;9.838;2023-08-21T05:22:40;20.90;1.00
75821;DHT22;64454;51.984;9.838;2023-08-21T05:25:08;20.90;1.00
75821;DHT22;64454;51.984;9.838;2023-08-21T05:27:35;20.90;1.00
75821;DHT22;64454;51.984;9.838;2023-08-21T05:30:03;20.90;1.00
75821;DHT22;64454;51.984;9.838;2023-08-21T05:32:31;20.90;1.00
75821;DHT22;64454;51.984;9.838;2023-08-21T05:34:58;21.00;1.00
75821;DHT22;64454;51.984;9.838;2023-08-21T05:37:26;21.00;1.00
75821;DHT22;64454;51.984;9.838;2023-08-21T05:39:53;21.10;1.00
75821;DHT22;64454;51.984;9.838;2023-08-21T05:42:20;21.20;1.00
75821;DHT22;64454;51.984;9.838;2023-08-21T05:44:47;21.40;1.00
75821;DHT22;64454;51.984;9.838;2023-08-21T05:47:14;21.60;1.00
75821;DHT22;64454;51.984;9.838;2023-08-21T05:49:41;21.60;1.00
75821;DHT22;64454;51.984;9.838;2023-08-21T05:52:09;21.70;1.00
75821;DHT22;64454;51.984;9.838;2023-08-21T05:54:37;21.80;1.00
75821;DHT22;64454;51.984;9.838;2023-08-21T05:57:04;21.90;1.00
75821;DHT22;64454;51.984;9.838;2023-08-21T05:59:32;22.10;1.00
75821;DHT22;64454;51.984;9.838;2023-08-21T06:01:59;22.20;1.00
75821;DHT22;64454;51.984;9.838;2023-08-21T06:04:26;22.40;1.00
75821;DHT22;64454;51.984;9.838;2023-08-21T06:06:53;22.50;1.00
75821;DHT22;64454;51.984;9.838;2023-08-21T06:09:21;22.60;1.00
75821;DHT22;64454;51.984;9.838;2023-08-21T06:11:50;22.70;1.00
75821;DHT22;64454;51.984;9.838;2023-08-21T06:14:18;22.80;1.00
75821;DHT22;64454;51.984;9.838;2023-08-21T06:16:53;22.80;1.00
75821;DHT22;64454;51.984;9.838;2023-08-21T06:19:20;22.90;1.00
75821;DHT22;64454;51.984;9.838;2023-08-21T06:21:47;23.00;1.00
75821;DHT22;64454;51.984;9.838;2023-08-21T06:24:15;23.00;1.00
75821;DHT22;64454;51.984;9.838;2023-08-21T06:26:44;23.00;1.00
75821;DHT22;64454;51.984;9.838;2023-08-21T06:29:13;22.90;1.00
75821;DHT22;64454;51.984;9.838;2023-08-21T06:31:42;22.90;1.00
75821;DHT22;64454;51.984;9.838;2023-08-21T06:34:09;22.90;1.00
75821;DHT22;64454;51.984;9.838;2023-08-21T06:36:36;22.80;1.00
75821;DHT22;64454;51.984;9.838;2023-08-21T06:39:04;22.70;1.00
75821;DHT22;64454;51.984;9.838;2023-08-21T06:41:32;22.70;1.00
75821;DHT22;64454;51.984;9.838;2023-08-21T06:43:58;22.70;1.00
75821;DHT22;64454;51.984;9.838;2023-08-21T06:46:27;22.70;1.00
75821;DHT22;64454;51.984;9.838;2023-08-21T06:48:54;22.80;1.00
75821;DHT22;64454;51.984;9.838;2023-08-21T06:51:21;22.90;1.00
75821;DHT22;64454;51.984;9.838;2023-08-21T06:53:47;22.80;1.00
75821;DHT22;64454;51.984;9.838;2023-08-21T06:56:15;22.90;1.00
75821;DHT22;64454;51.984;9.838;2023-08-21T06:58:43;22.90;1.00
75821;DHT22;64454;51.984;9.838;2023-08-21T07:01:09;22.90;1.00
75821;DHT22;64454;51.984;9.838;2023-08-21T07:03:38;22.90;1.00
75821;DHT22;64454;51.984;9.838;2023-08-21T07:06:05;23.10;1.00
75821;DHT22;64454;51.984;9.838;2023-08-21T07:08:32;23.20;1.00
75821;DHT22;64454;51.984;9.838;2023-08-21T07:11:02;23.30;1.00
75821;DHT22;64454;51.984;9.838;2023-08-21T07:13:30;23.40;1.00
75821;DHT22;64454;51.984;9.838;2023-08-21T07:15:57;23.40;1.00
75821;DHT22;64454;51.984;9.838;2023-08-21T07:18:24;23.60;1.00
75821;DHT22;64454;51.984;9.838;2023-08-21T07:20:53;23.80;1.00
75821;DHT22;64454;51.984;9.838;2023-08-21T07:23:20;24.00;1.00
75821;DHT22;64454;51.984;9.838;2023-08-21T07:25:47;24.30;1.00
75821;DHT22;64454;51.984;9.838;2023-08-21T07:28:14;24.60;1.00
75821;DHT22;64454;51.984;9.838;2023-08-21T07:30:41;24.80;1.00
75821;DHT22;64454;51.984;9.838;2023-08-21T07:33:08;25.00;1.00
75821;DHT22;64454;51.984;9.838;2023-08-21T07:35:35;25.10;1.00
75821;DHT22;64454;51.984;9.838;2023-08-21T07:38:03;25.20;1.00
75821;DHT22;64454;51.984;9.838;2023-08-21T07:40:30;25.30;1.00
75821;DHT22;64454;51.984;9.838;2023-08-21T07:42:57;25.40;1.00
75821;DHT22;64454;51.984;9.838;2023-08-21T07:45:24;25.50;1.00
75821;DHT22;64454;51.984;9.838;2023-08-21T07:47:51;25.90;1.00
75821;DHT22;64454;51.984;9.838;2023-08-21T07:50:18;26.00;1.00
75821;DHT22;64454;51.984;9.838;2023-08-21T07:52:45;26.10;1.00
75821;DHT22;64454;51.984;9.838;2023-08-21T07:55:14;26.80;1.00
75821;DHT22;64454;51.984;9.838;2023-08-21T07:57:41;27.10;1.00
75821;DHT22;64454;51.984;9.838;2023-08-21T08:00:09;27.50;1.00
75821;DHT22;64454;51.984;9.838;2023-08-21T08:02:37;28.10;1.00
75821;DHT22;64454;51.984;9.838;2023-08-21T08:05:05;28.40;1.00
75821;DHT22;64454;51.984;9.838;2023-08-21T08:07:32;28.50;1.00
75821;DHT22;64454;51.984;9.838;2023-08-21T08:10:00;28.80;1.00
75821;DHT22;64454;51.984;9.838;2023-08-21T08:12:28;29.60;1.00
75821;DHT22;64454;51.984;9.838;2023-08-21T08:14:55;30.70;1.00
75821;DHT22;64454;51.984;9.838;2023-08-21T08:17:22;30.80;1.00
75821;DHT22;64454;51.984;9.838;2023-08-21T08:19:49;30.90;1.00
75821;DHT22;64454;51.984;9.838;2023-08-21T08:22:15;30.70;1.00
75821;DHT22;64454;51.984;9.838;2023-08-21T08:24:42;30.90;1.00
75821;DHT22;64454;51.984;9.838;2023-08-21T08:27:09;31.60;1.00
75821;DHT22;64454;51.984;9.838;2023-08-21T08:29:39;32.90;1.00
75821;DHT22;64454;51.984;9.838;2023-08-21T08:32:06;34.00;1.00
75821;DHT22;64454;51.984;9.838;2023-08-21T08:34:33;33.90;1.00
75821;DHT22;64454;51.984;9.838;2023-08-21T08:36:59;33.40;1.00
75821;DHT22;64454;51.984;9.838;2023-08-21T08:39:26;33.50;1.00
75821;DHT22;64454;51.984;9.838;2023-08-21T08:41:58;33.70;1.00
75821;DHT22;64454;51.984;9.838;2023-08-21T08:44:29;33.80;1.00
75821;DHT22;64454;51.984;9.838;2023-08-21T08:46:59;34.50;1.00
75821;DHT22;64454;51.984;9.838;2023-08-21T08:49:27;34.60;1.00
75821;DHT22;64454;51.984;9.838;2023-08-21T08:51:55;34.30;1.00
75821;DHT22;64454;51.984;9.838;2023-08-21T08:54:24;33.80;1.00
75821;DHT22;64454;51.984;9.838;2023-08-21T08:56:52;34.00;1.00
75821;DHT22;64454;51.984;9.838;2023-08-21T08:59:20;33.70;1.00
75821;DHT22;64454;51.984;9.838;2023-08-21T09:01:47;33.80;1.00
75821;DHT22;64454;51.984;9.838;2023-08-21T09:04:18;34.60;1.00
75821;DHT22;64454;51.984;9.838;2023-08-21T09:06:47;35.70;1.00
75821;DHT22;64454;51.984;9.838;2023-08-21T09:09:15;37.00;1.00
75821;DHT22;64454;51.984;9.838;2023-08-21T09:11:46;36.70;1.00
75821;DHT22;64454;51.984;9.838;2023-08-21T09:14:16;35.80;1.00
75821;DHT22;64454;51.984;9.838;2023-08-21T09:17:00;36.40;1.00
75821;DHT22;64454;51.984;9.838;2023-08-21T09:19:30;36.70;1.00
75821;DHT22;64454;51.984;9.838;2023-08-21T09:21:57;38.50;1.00
75821;DHT22;64454;51.984;9.838;2023-08-21T09:24:24;39.10;1.00
75821;DHT22;64454;51.984;9.838;2023-08-21T09:26:52;40.10;1.00
75821;DHT22;64454;51.984;9.838;2023-08-21T09:29:20;40.50;1.00
75821;DHT22;64454;51.984;9.838;2023-08-21T09:31:47;42.20;1.00
75821;DHT22;64454;51.984;9.838;2023-08-21T09:34:15;43.60;1.00
75821;DHT22;64454;51.984;9.838;2023-08-21T09:36:54;44.70;1.00
75821;DHT22;64454;51.984;9.838;2023-08-21T09:39:21;46.10;1.00
75821;DHT22;64454;51.984;9.838;2023-08-21T09:41:55;46.70;99.90
75821;DHT22;64454;51.984;9.838;2023-08-21T09:44:22;46.10;1.00
75821;DHT22;64454;51.984;9.838;2023-08-21T09:46:49;46.00;99.90
75821;DHT22;64454;51.984;9.838;2023-08-21T09:49:19;46.30;99.90
75821;DHT22;64454;51.984;9.838;2023-08-21T09:51:50;44.90;1.00
75821;DHT22;64454;51.984;9.838;2023-08-21T09:54:20;43.70;1.00
75821;DHT22;64454;51.984;9.838;2023-08-21T09:56:49;43.40;1.00
75821;DHT22;64454;51.984;9.838;2023-08-21T09:59:18;44.80;1.00
75821;DHT22;64454;51.984;9.838;2023-08-21T10:01:48;46.00;99.90
75821;DHT22;64454;51.984;9.838;2023-08-21T10:04:18;46.80;99.90
75821;DHT22;64454;51.984;9.838;2023-08-21T10:06:51;46.30;99.90
75821;DHT22;64454;51.984;9.838;2023-08-21T10:09:21;46.10;99.90
75821;DHT22;64454;51.984;9.838;2023-08-21T10:11:51;45.60;99.90
75821;DHT22;64454;51.984;9.838;2023-08-21T10:14:22;45.40;1.40
75821;DHT22;64454;51.984;9.838;2023-08-21T10:16:51;45.70;1.00
75821;DHT22;64454;51.984;9.838;2023-08-21T10:19:20;46.40;99.90
75821;DHT22;64454;51.984;9.838;2023-08-21T10:21:49;46.50;99.90
75821;DHT22;64454;51.984;9.838;2023-08-21T10:24:33;44.40;99.90
75821;DHT22;64454;51.984;9.838;2023-08-21T10:27:03;43.30;1.00
75821;DHT22;64454;51.984;9.838;2023-08-21T10:29:30;42.40;1.00
75821;DHT22;64454;51.984;9.838;2023-08-21T10:31:59;41.70;1.00
75821;DHT22;64454;51.984;9.838;2023-08-21T10:34:33;40.90;1.00
75821;DHT22;64454;51.984;9.838;2023-08-21T10:37:06;39.90;1.00
75821;DHT22;64454;51.984;9.838;2023-08-21T10:39:36;38.50;1.00
75821;DHT22;64454;51.984;9.838;2023-08-21T10:42:07;37.40;1.00
75821;DHT22;64454;51.984;9.838;2023-08-21T10:44:50;36.60;1.00
75821;DHT22;64454;51.984;9.838;2023-08-21T10:47:22;35.80;1.00
75821;DHT22;64454;51.984;9.838;2023-08-21T10:49:51;35.70;1.00
75821;DHT22;64454;51.984;9.838;2023-08-21T10:52:25;36.70;1.00
75821;DHT22;64454;51.984;9.838;2023-08-21T10:54:54;37.80;1.00
75821;DHT22;64454;51.984;9.838;2023-08-21T10:57:23;36.70;1.00
75821;DHT22;64454;51.984;9.838;2023-08-21T10:59:55;35.60;1.00
75821;DHT22;64454;51.984;9.838;2023-08-21T11:02:24;35.10;1.00
75821;DHT22;64454;51.984;9.838;2023-08-21T11:04:52;34.50;1.00
75821;DHT22;64454;51.984;9.838;2023-08-21T11:07:19;34.20;1.00
75821;DHT22;64454;51.984;9.838;2023-08-21T11:09:49;34.50;1.00
75821;DHT22;64454;51.984;9.838;2023-08-21T11:12:17;34.70;1.00
75821;DHT22;64454;51.984;9.838;2023-08-21T11:14:46;34.70;1.00
75821;DHT22;64454;51.984;9.838;2023-08-21T11:17:13;35.90;1.00
75821;DHT22;64454;51.984;9.838;2023-08-21T11:19:41;37.40;1.00
75821;DHT22;64454;51.984;9.838;2023-08-21T11:22:09;38.70;1.00
75821;DHT22;64454;51.984;9.838;2023-08-21T11:24:43;38.70;1.00
75821;DHT22;64454;51.984;9.838;2023-08-21T11:27:13;37.50;1.00
75821;DHT22;64454;51.984;9.838;2023-08-21T11:29:42;36.70;1.00
75821;DHT22;64454;51.984;9.838;2023-08-21T11:32:12;36.40;1.00
75821;DHT22;64454;51.984;9.838;2023-08-21T11:34:41;36.60;1.00
75821;DHT22;64454;51.984;9.838;2023-08-21T11:37:08;35.90;1.00
75821;DHT22;64454;51.984;9.838;2023-08-21T11:39:42;36.20;1.00
75821;DHT22;64454;51.984;9.838;2023-08-21T11:42:11;36.50;1.00
75821;DHT22;64454;51.984;9.838;2023-08-21T11:44:41;37.10;1.00
75821;DHT22;64454;51.984;9.838;2023-08-21T11:47:13;37.60;1.00
75821;DHT22;64454;51.984;9.838;2023-08-21T11:49:41;37.90;1.00
75821;DHT22;64454;51.984;9.838;2023-08-21T11:52:10;37.30;1.00
75821;DHT22;64454;51.984;9.838;2023-08-21T11:54:39;36.90;1.00
75821;DHT22;64454;51.984;9.838;2023-08-21T11:57:08;36.40;1.00
75821;DHT22;64454;51.984;9.838;2023-08-21T11:59:40;36.40;1.00
75821;DHT22;64454;51.984;9.838;2023-08-21T12:02:14;36.20;1.00
75821;DHT22;64454;51.984;9.838;2023-08-21T12:04:41;36.10;1.00
75821;DHT22;64454;51.984;9.838;2023-08-21T12:07:08;36.10;1.00
75821;DHT22;64454;51.984;9.838;2023-08-21T12:09:36;35.90;1.00
75821;DHT22;64454;51.984;9.838;2023-08-21T12:12:03;35.20;1.00
75821;DHT22;64454;51.984;9.838;2023-08-21T12:14:31;34.80;1.00
75821;DHT22;64454;51.984;9.838;2023-08-21T12:16:59;34.60;1.00
75821;DHT22;64454;51.984;9.838;2023-08-21T12:19:26;34.60;1.00
75821;DHT22;64454;51.984;9.838;2023-08-21T12:21:53;34.00;1.00
75821;DHT22;64454;51.984;9.838;2023-08-21T12:24:20;33.90;1.00
75821;DHT22;64454;51.984;9.838;2023-08-21T12:26:47;34.10;1.00
75821;DHT22;64454;51.984;9.838;2023-08-21T12:29:15;34.20;1.00
75821;DHT22;64454;51.984;9.838;2023-08-21T12:31:44;34.30;1.00
75821;DHT22;64454;51.984;9.838;2023-08-21T12:34:14;34.60;1.00
75821;DHT22;64454;51.984;9.838;2023-08-21T12:36:42;34.60;1.00
75821;DHT22;64454;51.984;9.838;2023-08-21T12:39:09;34.20;1.00
75821;DHT22;64454;51.984;9.838;2023-08-21T12:41:36;34.30;1.00
75821;DHT22;64454;51.984;9.838;2023-08-21T12:44:04;34.20;1.00
75821;DHT22;64454;51.984;9.838;2023-08-21T12:46:34;34.30;1.00
75821;DHT22;64454;51.984;9.838;2023-08-21T12:49:01;33.80;1.00
75821;DHT22;64454;51.984;9.838;2023-08-21T12:51:31;33.80;1.00
75821;DHT22;64454;51.984;9.838;2023-08-21T12:53:57;33.50;1.00
75821;DHT22;64454;51.984;9.838;2023-08-21T12:56:24;33.30;1.00
75821;DHT22;64454;51.984;9.838;2023-08-21T12:58:51;33.30;1.00
75821;DHT22;64454;51.984;9.838;2023-08-21T13:01:18;33.60;1.00
75821;DHT22;64454;51.984;9.838;2023-08-21T13:03:46;33.50;1.00
75821;DHT22;64454;51.984;9.838;2023-08-21T13:06:14;33.80;1.00
75821;DHT22;64454;51.984;9.838;2023-08-21T13:08:42;33.80;1.00
75821;DHT22;64454;51.984;9.838;2023-08-21T13:11:09;33.90;1.00
75821;DHT22;64454;51.984;9.838;2023-08-21T13:13:36;33.70;1.00
75821;DHT22;64454;51.984;9.838;2023-08-21T13:16:03;33.80;1.00
75821;DHT22;64454;51.984;9.838;2023-08-21T13:18:30;33.50;1.00
75821;DHT22;64454;51.984;9.838;2023-08-21T13:20:57;33.20;1.00
75821;DHT22;64454;51.984;9.838;2023-08-21T13:23:24;33.20;1.00
75821;DHT22;64454;51.984;9.838;2023-08-21T13:25:52;33.40;1.00
75821;DHT22;64454;51.984;9.838;2023-08-21T13:28:19;33.20;1.00
75821;DHT22;64454;51.984;9.838;2023-08-21T13:30:46;32.80;1.00
75821;DHT22;64454;51.984;9.838;2023-08-21T13:33:14;32.30;1.00
75821;DHT22;64454;51.984;9.838;2023-08-21T13:35:43;32.30;1.00
75821;DHT22;64454;51.984;9.838;2023-08-21T13:38:10;32.60;1.00
75821;DHT22;64454;51.984;9.838;2023-08-21T13:40:38;32.40;1.00
75821;DHT22;64454;51.984;9.838;2023-08-21T13:43:08;32.50;1.00
75821;DHT22;64454;51.984;9.838;2023-08-21T13:45:38;32.70;1.00
75821;DHT22;64454;51.984;9.838;2023-08-21T13:48:06;32.80;1.00
75821;DHT22;64454;51.984;9.838;2023-08-21T13:50:33;33.00;1.00
75821;DHT22;64454;51.984;9.838;2023-08-21T13:53:01;33.00;1.00
75821;DHT22;64454;51.984;9.838;2023-08-21T13:55:28;32.90;1.00
75821;DHT22;64454;51.984;9.838;2023-08-21T13:57:54;33.00;1.00
75821;DHT22;64454;51.984;9.838;2023-08-21T14:00:23;33.20;1.00
75821;DHT22;64454;51.984;9.838;2023-08-21T14:02:50;33.30;1.00
75821;DHT22;64454;51.984;9.838;2023-08-21T14:05:17;33.50;1.00
75821;DHT22;64454;51.984;9.838;2023-08-21T14:07:44;33.60;1.00
75821;DHT22;64454;51.984;9.838;2023-08-21T14:10:11;33.40;1.00
75821;DHT22;64454;51.984;9.838;2023-08-21T14:12:40;32.60;1.00
75821;DHT22;64454;51.984;9.838;2023-08-21T14:15:07;32.00;1.00
75821;DHT22;64454;51.984;9.838;2023-08-21T14:17:36;32.10;1.00
75821;DHT22;64454;51.984;9.838;2023-08-21T14:20:04;32.30;1.00
75821;DHT22;64454;51.984;9.838;2023-08-21T14:22:33;32.50;1.00
75821;DHT22;64454;51.984;9.838;2023-08-21T14:25:00;32.50;1.00
75821;DHT22;64454;51.984;9.838;2023-08-21T14:27:28;32.50;1.00
75821;DHT22;64454;51.984;9.838;2023-08-21T14:29:55;31.90;1.00
75821;DHT22;64454;51.984;9.838;2023-08-21T14:32:22;31.90;1.00
75821;DHT22;64454;51.984;9.838;2023-08-21T14:34:51;31.80;1.00
75821;DHT22;64454;51.984;9.838;2023-08-21T14:37:20;31.90;1.00
75821;DHT22;64454;51.984;9.838;2023-08-21T14:39:49;31.80;1.00
75821;DHT22;64454;51.984;9.838;2023-08-21T14:42:16;32.30;1.00
75821;DHT22;64454;51.984;9.838;2023-08-21T14:44:43;32.10;1.00
75821;DHT22;64454;51.984;9.838;2023-08-21T14:47:10;31.90;1.00
75821;DHT22;64454;51.984;9.838;2023-08-21T14:49:36;31.70;1.00
75821;DHT22;64454;51.984;9.838;2023-08-21T14:52:05;31.60;1.00
75821;DHT22;64454;51.984;9.838;2023-08-21T14:54:33;31.80;1.00
75821;DHT22;64454;51.984;9.838;2023-08-21T14:57:00;32.10;1.00
75821;DHT22;64454;51.984;9.838;2023-08-21T14:59:27;32.20;1.00
75821;DHT22;64454;51.984;9.838;2023-08-21T15:01:54;32.30;1.00
75821;DHT22;64454;51.984;9.838;2023-08-21T15:04:21;32.40;1.00
75821;DHT22;64454;51.984;9.838;2023-08-21T15:06:48;32.70;1.00
75821;DHT22;64454;51.984;9.838;2023-08-21T15:09:20;33.20;1.00
75821;DHT22;64454;51.984;9.838;2023-08-21T15:11:47;33.80;1.00
75821;DHT22;64454;51.984;9.838;2023-08-21T15:14:16;34.80;1.00
75821;DHT22;64454;51.984;9.838;2023-08-21T15:16:45;35.50;1.00
75821;DHT22;64454;51.984;9.838;2023-08-21T15:19:12;36.60;1.00
75821;DHT22;64454;51.984;9.838;2023-08-21T15:21:39;37.80;1.00
75821;DHT22;64454;51.984;9.838;2023-08-21T15:24:06;38.30;1.00
75821;DHT22;64454;51.984;9.838;2023-08-21T15:26:35;38.80;1.00
75821;DHT22;64454;51.984;9.838;2023-08-21T15:29:02;38.80;1.00
75821;DHT22;64454;51.984;9.838;2023-08-21T15:31:29;38.80;1.00
75821;DHT22;64454;51.984;9.838;2023-08-21T15:33:56;38.50;1.00
75821;DHT22;64454;51.984;9.838;2023-08-21T15:36:23;38.10;1.00
75821;DHT22;64454;51.984;9.838;2023-08-21T15:38:50;38.10;1.00
75821;DHT22;64454;51.984;9.838;2023-08-21T15:41:17;37.50;1.00
75821;DHT22;64454;51.984;9.838;2023-08-21T15:43:45;36.70;1.00
75821;DHT22;64454;51.984;9.838;2023-08-21T15:46:12;36.00;1.00
75821;DHT22;64454;51.984;9.838;2023-08-21T15:48:38;35.00;1.00
75821;DHT22;64454;51.984;9.838;2023-08-21T15:51:05;34.30;1.00